createdAt,value
2018-03-26T00:02:02.035Z,58.60
2018-03-26T00:04:29.082Z,58.90
2018-03-26T00:06:56.105Z,59.60
2018-03-26T00:09:23.858Z,59.30
2018-03-26T00:11:50.869Z,59.30
2018-03-26T00:14:17.890Z,59.40
2018-03-26T00:16:44.867Z,59.00
2018-03-26T00:19:11.941Z,58.90
2018-03-26T00:21:38.962Z,59.20
2018-03-26T00:24:06.006Z,59.50
2018-03-26T00:26:33.021Z,58.80
2018-03-26T00:29:00.738Z,59.00
2018-03-26T00:31:27.745Z,59.00
2018-03-26T00:33:54.809Z,59.10
2018-03-26T00:36:21.781Z,59.00
2018-03-26T00:38:48.776Z,58.50
2018-03-26T00:41:15.810Z,58.50
2018-03-26T00:43:42.871Z,58.80
2018-03-26T00:46:09.909Z,58.70
2018-03-26T00:48:36.917Z,58.60
2018-03-26T00:51:03.933Z,58.80
2018-03-26T00:53:43.260Z,58.30
2018-03-26T00:56:10.321Z,58.70
2018-03-26T00:58:37.348Z,59.00
2018-03-26T01:01:04.421Z,59.10
2018-03-26T01:03:31.533Z,59.00
2018-03-26T01:05:58.534Z,59.20
2018-03-26T01:08:25.605Z,59.20
2018-03-26T01:10:52.602Z,59.80
2018-03-26T01:13:19.629Z,59.60
2018-03-26T01:15:46.706Z,59.80
2018-03-26T01:18:14.476Z,59.80
2018-03-26T01:20:41.471Z,60.00
2018-03-26T01:23:09.265Z,59.40
2018-03-26T01:25:36.285Z,59.40
2018-03-26T01:28:03.353Z,60.10
2018-03-26T01:30:30.377Z,60.40
2018-03-26T01:32:58.173Z,60.20
2018-03-26T01:35:25.180Z,60.10
2018-03-26T01:37:52.907Z,60.00
2018-03-26T01:40:19.931Z,59.90
2018-03-26T01:42:46.995Z,60.40
2018-03-26T01:45:14.022Z,60.30
2018-03-26T01:47:41.052Z,60.40
2018-03-26T01:50:08.140Z,61.10
2018-03-26T01:52:35.189Z,61.20
2018-03-26T01:55:02.248Z,60.40
2018-03-26T01:57:29.273Z,60.00
2018-03-26T01:59:56.260Z,60.30
2018-03-26T02:02:24.033Z,61.70
2018-03-26T02:04:52.082Z,61.70
2018-03-26T02:07:19.872Z,61.70
2018-03-26T02:09:47.647Z,62.20
2018-03-26T02:12:14.628Z,62.10
2018-03-26T02:14:41.707Z,62.50
2018-03-26T02:17:08.757Z,62.60
2018-03-26T02:19:35.785Z,63.00
2018-03-26T02:22:02.841Z,63.20
2018-03-26T02:24:29.969Z,62.50
2018-03-26T02:26:56.985Z,62.40
2018-03-26T02:29:23.996Z,62.60
2018-03-26T02:31:51.002Z,63.00
2018-03-26T02:34:18.043Z,63.50
2018-03-26T02:36:45.069Z,62.70
2018-03-26T02:39:12.063Z,62.20
2018-03-26T02:41:39.054Z,62.90
2018-03-26T02:44:06.150Z,62.50
2018-03-26T02:46:33.165Z,62.20
2018-03-26T02:49:00.169Z,62.00
2018-03-26T02:51:27.223Z,62.30
2018-03-26T02:53:54.310Z,62.60
2018-03-26T02:56:21.363Z,63.00
2018-03-26T02:58:48.370Z,63.30
2018-03-26T03:01:15.352Z,63.40
2018-03-26T03:03:42.404Z,64.50
2018-03-26T03:06:09.430Z,64.00
2018-03-26T03:08:36.458Z,64.10
2018-03-26T03:11:03.502Z,63.80
2018-03-26T03:13:31.310Z,63.70
2018-03-26T03:15:58.290Z,63.70
2018-03-26T03:18:25.350Z,63.90
2018-03-26T03:20:52.349Z,64.60
2018-03-26T03:23:19.415Z,64.70
2018-03-26T03:25:47.220Z,65.00
2018-03-26T03:28:14.957Z,65.00
2018-03-26T03:30:41.973Z,65.00
2018-03-26T03:33:10.092Z,66.20
2018-03-26T03:35:37.829Z,65.70
2018-03-26T03:38:04.825Z,65.60
2018-03-26T03:40:31.842Z,66.10
2018-03-26T03:42:58.949Z,65.60
2018-03-26T03:45:25.942Z,66.00
2018-03-26T03:47:52.952Z,65.90
2018-03-26T03:50:19.973Z,65.90
2018-03-26T03:52:47.033Z,66.00
2018-03-26T03:55:14.070Z,65.90
2018-03-26T03:57:41.064Z,65.90
2018-03-26T04:00:08.139Z,65.80
2018-03-26T04:02:35.161Z,66.10
2018-03-26T04:05:02.186Z,67.10
2018-03-26T04:07:29.201Z,66.60
2018-03-26T04:09:56.198Z,67.00
2018-03-26T04:12:23.177Z,66.40
2018-03-26T04:14:50.253Z,66.20
2018-03-26T04:17:17.248Z,67.40
2018-03-26T04:19:44.246Z,66.90
2018-03-26T04:22:11.281Z,67.00
2018-03-26T04:24:38.335Z,67.00
2018-03-26T04:27:05.316Z,67.20
2018-03-26T04:29:32.337Z,67.10
2018-03-26T04:31:59.341Z,66.70
2018-03-26T04:34:27.090Z,67.40
2018-03-26T04:36:54.351Z,67.30
2018-03-26T04:39:22.349Z,67.70
2018-03-26T04:41:49.510Z,67.70
2018-03-26T04:44:16.595Z,67.70
2018-03-26T04:46:44.308Z,68.00
2018-03-26T04:49:11.461Z,68.00
2018-03-26T04:51:38.557Z,67.80
2018-03-26T04:54:05.593Z,67.50
2018-03-26T04:56:32.735Z,67.80
2018-03-26T04:59:00.017Z,68.40
2018-03-26T05:01:26.982Z,68.30
2018-03-26T05:03:54.128Z,68.00
2018-03-26T05:06:21.908Z,68.20
2018-03-26T05:08:49.089Z,68.00
2018-03-26T05:11:16.196Z,68.80
2018-03-26T05:13:43.260Z,68.60
2018-03-26T05:16:10.285Z,68.20
2018-03-26T05:18:37.539Z,68.10
2018-03-26T05:21:05.498Z,67.90
2018-03-26T05:23:32.613Z,67.90
2018-03-26T05:26:00.592Z,68.10
2018-03-26T05:28:28.569Z,68.50
2018-03-26T05:30:55.872Z,68.50
2018-03-26T05:33:23.860Z,67.90
2018-03-26T05:35:50.982Z,67.80
2018-03-26T05:38:18.130Z,68.20
2018-03-26T05:40:45.262Z,68.40
2018-03-26T05:43:13.031Z,68.20
2018-03-26T05:45:40.266Z,68.10
2018-03-26T05:48:07.570Z,67.40
2018-03-26T05:50:34.692Z,67.90
2018-03-26T05:53:01.886Z,68.10
2018-03-26T05:55:29.787Z,67.80
2018-03-26T05:57:57.583Z,67.10
2018-03-26T06:00:24.834Z,67.00
2018-03-26T06:02:51.978Z,66.90
2018-03-26T06:05:19.133Z,66.50
2018-03-26T06:07:46.950Z,66.60
2018-03-26T06:10:14.023Z,66.60
2018-03-26T06:12:41.257Z,66.30
2018-03-26T06:15:09.139Z,65.80
2018-03-26T06:17:36.214Z,65.70
2018-03-26T06:20:03.473Z,67.00
2018-03-26T06:22:30.626Z,65.80
2018-03-26T06:24:57.799Z,65.70
2018-03-26T06:27:25.840Z,65.10
2018-03-26T06:29:53.632Z,65.10
2018-03-26T06:32:20.758Z,65.00
2018-03-26T06:34:47.893Z,64.30
2018-03-26T06:40:19.461Z,65.30
2018-03-26T06:42:46.703Z,64.80
2018-03-26T06:45:14.579Z,63.70
2018-03-26T06:47:42.494Z,63.60
2018-03-26T06:50:09.724Z,63.60
2018-03-26T06:52:37.000Z,64.00
2018-03-26T06:55:04.215Z,64.20
2018-03-26T06:57:31.355Z,63.90
2018-03-26T06:59:58.419Z,63.50
2018-03-26T07:02:25.861Z,63.70
2018-03-26T07:04:52.981Z,64.60
2018-03-26T07:07:20.797Z,65.10
2018-03-26T07:09:47.815Z,65.10
2018-03-26T07:12:15.638Z,64.10
2018-03-26T07:14:43.746Z,64.20
2018-03-26T07:17:11.003Z,64.10
2018-03-26T07:19:38.127Z,63.50
2018-03-26T07:22:05.262Z,62.80
2018-03-26T07:24:32.249Z,62.10
2018-03-26T07:26:59.279Z,61.60
2018-03-26T07:29:26.330Z,61.10
2018-03-26T07:31:53.398Z,61.70
2018-03-26T07:34:20.618Z,62.60
2018-03-26T07:36:48.629Z,61.20
2018-03-26T07:39:18.747Z,61.00
2018-03-26T07:41:45.829Z,60.60
2018-03-26T07:44:12.907Z,60.50
2018-03-26T07:46:40.158Z,61.40
2018-03-26T07:49:08.436Z,59.80
2018-03-26T07:51:35.603Z,60.10
2018-03-26T07:54:02.917Z,60.00
2018-03-26T07:56:30.887Z,59.90
2018-03-26T07:58:58.090Z,59.40
2018-03-26T08:01:26.812Z,59.20
2018-03-26T08:03:54.031Z,59.20
2018-03-26T08:06:21.209Z,59.50
2018-03-26T08:08:48.428Z,58.70
2018-03-26T08:11:16.407Z,57.90
2018-03-26T08:13:44.380Z,58.00
2018-03-26T08:16:11.672Z,57.90
2018-03-26T08:18:38.849Z,57.30
2018-03-26T08:21:05.986Z,57.40
2018-03-26T08:23:32.968Z,58.50
2018-03-26T08:25:59.988Z,57.60
2018-03-26T08:28:27.006Z,57.10
2018-03-26T08:30:54.026Z,56.20
2018-03-26T08:33:21.104Z,56.20
2018-03-26T08:35:48.085Z,55.60
2018-03-26T08:38:15.838Z,55.00
2018-03-26T08:40:42.861Z,55.00
2018-03-26T08:43:09.858Z,54.70
2018-03-26T08:45:36.895Z,54.40
2018-03-26T08:48:03.934Z,54.50
2018-03-26T08:50:30.962Z,53.80
2018-03-26T08:52:57.990Z,53.90
2018-03-26T08:55:25.040Z,53.40
2018-03-26T08:57:52.336Z,52.40
2018-03-26T09:00:19.663Z,52.60
2018-03-26T09:02:46.814Z,53.30
2018-03-26T09:05:14.022Z,53.30
2018-03-26T09:07:41.193Z,52.60
2018-03-26T09:10:08.258Z,54.20
2018-03-26T09:12:35.498Z,54.80
2018-03-26T09:15:02.629Z,52.20
2018-03-26T09:17:30.538Z,52.30
2018-03-26T09:19:57.782Z,52.20
2018-03-26T09:22:25.007Z,52.50
2018-03-26T09:24:52.055Z,52.00
2018-03-26T09:27:19.269Z,52.40
2018-03-26T09:29:46.319Z,50.80
2018-03-26T09:32:13.372Z,50.90
2018-03-26T09:34:41.309Z,51.40
2018-03-26T09:37:08.338Z,51.30
2018-03-26T09:39:35.381Z,50.90
2018-03-26T09:42:02.446Z,51.50
2018-03-26T09:44:29.449Z,52.50
2018-03-26T09:46:56.453Z,53.10
2018-03-26T09:49:23.542Z,52.90
2018-03-26T09:51:50.548Z,52.80
2018-03-26T09:54:18.363Z,50.00
2018-03-26T09:56:45.382Z,49.90
2018-03-26T09:59:13.237Z,49.80
2018-03-26T10:01:47.334Z,53.60
2018-03-26T10:04:15.123Z,49.80
2018-03-26T10:06:43.164Z,50.90
2018-03-26T10:09:11.048Z,51.00
2018-03-26T10:11:38.306Z,51.00
2018-03-26T10:14:06.242Z,47.50
2018-03-26T10:16:33.249Z,47.50
2018-03-26T10:19:00.265Z,48.30
2018-03-26T10:21:27.294Z,48.30
2018-03-26T10:23:54.570Z,47.90
2018-03-26T10:26:21.616Z,46.40
2018-03-26T10:28:48.859Z,46.40
2018-03-26T10:31:16.158Z,45.50
2018-03-26T10:33:43.286Z,44.80
2018-03-26T10:36:10.321Z,45.00
2018-03-26T10:38:37.638Z,45.20
2018-03-26T10:41:04.827Z,45.40
2018-03-26T10:43:32.106Z,47.10
2018-03-26T10:45:59.263Z,46.90
2018-03-26T10:48:26.460Z,47.70
2018-03-26T10:50:54.310Z,45.50
2018-03-26T10:53:21.521Z,45.40
2018-03-26T10:55:48.725Z,44.60
2018-03-26T10:58:15.745Z,44.50
2018-03-26T11:00:42.733Z,43.80
2018-03-26T11:03:09.761Z,43.50
2018-03-26T11:05:36.767Z,44.00
2018-03-26T11:08:03.848Z,44.30
2018-03-26T11:10:30.878Z,43.00
2018-03-26T11:12:57.894Z,43.30
2018-03-26T11:15:25.054Z,43.00
2018-03-26T11:17:52.114Z,44.70
2018-03-26T11:20:19.098Z,42.50
2018-03-26T11:22:46.147Z,42.30
2018-03-26T11:25:13.930Z,42.90
2018-03-26T11:27:41.106Z,42.80
2018-03-26T11:30:08.132Z,43.50
2018-03-26T11:32:35.857Z,42.20
2018-03-26T11:35:02.913Z,42.20
2018-03-26T11:37:29.933Z,41.30
2018-03-26T11:39:56.929Z,41.40
2018-03-26T11:42:24.698Z,39.70
2018-03-26T11:44:52.487Z,38.60
2018-03-26T11:47:19.525Z,38.50
2018-03-26T11:49:46.534Z,37.50
2018-03-26T11:52:13.633Z,37.70
2018-03-26T11:54:40.601Z,38.20
2018-03-26T11:57:07.621Z,37.00
2018-03-26T11:59:34.658Z,36.10
2018-03-26T12:02:01.673Z,35.50
2018-03-26T12:04:28.720Z,34.40
2018-03-26T12:06:55.750Z,36.60
2018-03-26T12:09:22.760Z,38.80
2018-03-26T12:11:50.074Z,37.40
2018-03-26T12:14:17.427Z,35.30
2018-03-26T12:16:44.538Z,35.60
2018-03-26T12:19:11.565Z,36.60
2018-03-26T12:21:38.570Z,36.50
2018-03-26T12:24:24.122Z,38.00
2018-03-26T12:26:51.155Z,38.50
2018-03-26T12:29:36.752Z,38.70
2018-03-26T12:32:03.830Z,40.10
2018-03-26T12:34:49.278Z,40.70
2018-03-26T12:37:16.324Z,40.80
2018-03-26T12:39:43.357Z,38.00
2018-03-26T12:42:10.386Z,36.80
2018-03-26T12:44:56.159Z,36.20
2018-03-26T12:47:23.338Z,35.50
2018-03-26T12:49:51.170Z,36.50
2018-03-26T12:52:36.724Z,35.90
2018-03-26T12:55:04.613Z,34.20
2018-03-26T12:57:50.058Z,34.10
2018-03-26T13:00:17.110Z,34.80
2018-03-26T13:02:44.121Z,34.60
2018-03-26T13:05:11.185Z,34.90
2018-03-26T13:07:38.232Z,35.80
2018-03-26T13:10:05.998Z,36.90
2018-03-26T13:12:33.761Z,38.00
2018-03-26T13:15:00.789Z,37.90
2018-03-26T13:17:27.792Z,38.50
2018-03-26T13:19:54.814Z,39.80
2018-03-26T13:22:21.837Z,40.80
2018-03-26T13:24:48.893Z,40.50
2018-03-26T13:27:15.909Z,40.90
2018-03-26T13:29:42.942Z,41.70
2018-03-26T13:32:10.001Z,42.90
2018-03-26T13:34:37.056Z,40.90
2018-03-26T13:37:04.085Z,40.10
2018-03-26T13:39:31.837Z,42.00
2018-03-26T13:41:59.586Z,41.20
2018-03-26T13:44:26.582Z,41.20
2018-03-26T13:46:53.760Z,40.60
2018-03-26T13:49:20.765Z,38.70
2018-03-26T13:51:47.798Z,37.10
2018-03-26T13:54:15.617Z,32.90
2018-03-26T13:56:42.669Z,32.80
2018-03-26T13:59:09.709Z,34.70
2018-03-26T14:01:36.704Z,35.50
2018-03-26T14:04:04.477Z,38.10
2018-03-26T14:06:31.517Z,38.10
2018-03-26T14:09:16.857Z,38.40
2018-03-26T14:12:02.453Z,38.50
2018-03-26T14:17:49.489Z,40.70
2018-03-26T14:20:17.313Z,42.60
2018-03-26T14:22:44.326Z,42.50
2018-03-26T14:25:11.348Z,43.50
2018-03-26T14:27:38.393Z,43.00
2018-03-26T14:30:05.458Z,43.40
2018-03-26T14:32:33.236Z,44.50
2018-03-26T14:38:05.995Z,43.40
2018-03-26T14:40:33.779Z,43.10
2018-03-26T14:43:00.880Z,44.10
2018-03-26T14:45:27.915Z,44.10
2018-03-26T14:47:55.004Z,44.20
2018-03-26T14:50:22.046Z,44.40
2018-03-26T14:52:49.064Z,44.80
2018-03-26T14:55:16.317Z,45.70
2018-03-26T14:57:43.334Z,44.40
2018-03-26T15:00:11.114Z,45.00
2018-03-26T15:02:38.184Z,44.80
2018-03-26T15:05:05.225Z,45.70
2018-03-26T15:07:32.222Z,46.40
2018-03-26T15:10:00.018Z,45.50
2018-03-26T15:12:27.766Z,45.80
2018-03-26T15:14:55.562Z,45.80
2018-03-26T15:17:23.185Z,45.60
2018-03-26T15:19:50.939Z,45.30
2018-03-26T15:22:17.987Z,45.30
2018-03-26T15:24:45.798Z,45.60
2018-03-26T15:27:12.851Z,45.40
2018-03-26T15:29:40.606Z,46.80
2018-03-26T15:32:07.620Z,45.90
2018-03-26T15:34:35.402Z,46.70
2018-03-26T15:37:02.479Z,46.70
2018-03-26T15:39:29.533Z,47.40
2018-03-26T15:41:56.878Z,48.40
2018-03-26T15:44:24.717Z,51.40
2018-03-26T15:46:51.756Z,50.70
2018-03-26T15:49:19.532Z,49.50
2018-03-26T15:51:47.296Z,49.30
2018-03-26T15:54:14.333Z,49.20
2018-03-26T15:56:41.381Z,49.70
2018-03-26T15:59:09.118Z,50.60
2018-03-26T16:01:36.132Z,50.60
2018-03-26T16:04:03.241Z,49.90
2018-03-26T16:06:30.250Z,50.80
2018-03-26T16:08:57.270Z,49.90
2018-03-26T16:11:24.464Z,51.10
2018-03-26T16:13:52.349Z,51.30
2018-03-26T16:16:19.402Z,51.30
2018-03-26T16:18:46.482Z,51.30
2018-03-26T16:21:13.487Z,52.10
2018-03-26T16:23:40.558Z,52.10
2018-03-26T16:26:07.646Z,52.00
2018-03-26T16:28:35.019Z,51.90
2018-03-26T16:31:02.121Z,51.60
2018-03-26T16:33:30.111Z,51.80
2018-03-26T16:35:57.250Z,51.70
2018-03-26T16:38:24.298Z,52.00
2018-03-26T16:40:51.570Z,52.00
2018-03-26T16:43:18.850Z,51.70
2018-03-26T16:45:46.078Z,52.00
2018-03-26T16:48:13.202Z,52.00
2018-03-26T16:50:40.350Z,51.90
2018-03-26T16:53:07.598Z,52.40
2018-03-26T16:55:34.721Z,52.40
2018-03-26T16:58:02.034Z,52.60
2018-03-26T17:00:29.286Z,52.80
2018-03-26T17:02:59.250Z,54.10
2018-03-26T17:05:26.430Z,54.00
2018-03-26T17:07:53.463Z,53.70
2018-03-26T17:10:20.898Z,54.20
2018-03-26T17:12:49.059Z,53.40
2018-03-26T17:15:16.831Z,54.30
2018-03-26T17:17:44.743Z,54.10
2018-03-26T17:20:12.607Z,54.30
2018-03-26T17:22:39.646Z,54.30
2018-03-26T17:25:06.901Z,54.20
2018-03-26T17:27:34.127Z,54.50
2018-03-26T17:30:01.375Z,54.50
2018-03-26T17:32:28.471Z,54.40
2018-03-26T17:34:55.497Z,54.60
2018-03-26T17:37:22.521Z,54.80
2018-03-26T17:39:50.566Z,55.10
2018-03-26T17:42:17.786Z,55.00
2018-03-26T17:44:45.049Z,55.10
2018-03-26T17:47:12.070Z,55.60
2018-03-26T17:49:39.106Z,55.00
2018-03-26T17:52:06.163Z,55.30
2018-03-26T17:54:33.241Z,55.00
2018-03-26T17:57:00.305Z,55.70
2018-03-26T17:59:27.334Z,55.70
2018-03-26T18:01:55.650Z,55.70
2018-03-26T18:04:22.797Z,55.70
2018-03-26T18:06:50.562Z,56.10
2018-03-26T18:09:17.645Z,56.00
2018-03-26T18:11:44.665Z,55.80
2018-03-26T18:14:11.726Z,56.10
2018-03-26T18:16:38.785Z,56.30
2018-03-26T18:19:05.824Z,56.10
2018-03-26T18:21:32.978Z,56.10
2018-03-26T18:24:00.376Z,56.20
2018-03-26T18:26:27.517Z,56.60
2018-03-26T18:28:55.310Z,56.50
2018-03-26T18:31:23.133Z,57.00
2018-03-26T18:33:50.362Z,57.00
2018-03-26T18:36:18.416Z,56.40
2018-03-26T18:38:45.486Z,56.90
2018-03-26T18:41:12.919Z,57.40
2018-03-26T18:43:40.108Z,57.10
2018-03-26T18:46:15.006Z,56.80
2018-03-26T18:48:42.374Z,56.70
2018-03-26T18:51:09.634Z,57.10
2018-03-26T18:53:36.859Z,57.00
2018-03-26T18:56:03.998Z,57.60
2018-03-26T18:58:31.284Z,58.30
2018-03-26T19:00:59.224Z,57.70
2018-03-26T19:03:26.519Z,57.30
2018-03-26T19:05:55.374Z,57.70
2018-03-26T19:08:22.559Z,57.70
2018-03-26T19:10:49.683Z,58.00
2018-03-26T19:13:17.521Z,58.20
2018-03-26T19:15:44.725Z,58.20
2018-03-26T19:18:11.908Z,58.50
2018-03-26T19:20:39.368Z,59.00
2018-03-26T19:23:07.358Z,58.90
2018-03-26T19:25:34.647Z,58.80
2018-03-26T19:28:02.561Z,59.90
2018-03-26T19:30:29.817Z,59.30
2018-03-26T19:32:57.070Z,59.10
2018-03-26T19:35:24.277Z,59.00
2018-03-26T19:37:51.342Z,59.50
2018-03-26T19:40:18.463Z,59.20
2018-03-26T19:42:45.482Z,59.60
2018-03-26T19:45:13.289Z,60.20
2018-03-26T19:47:40.294Z,60.20
2018-03-26T19:50:07.320Z,60.30
2018-03-26T19:52:35.286Z,59.30
2018-03-26T19:55:02.734Z,59.30
2018-03-26T19:57:29.772Z,59.50
2018-03-26T19:59:56.782Z,59.60
2018-03-26T20:02:23.781Z,59.60
2018-03-26T20:04:51.487Z,59.50
2018-03-26T20:07:18.486Z,60.40
2018-03-26T20:09:46.267Z,59.80
2018-03-26T20:12:13.282Z,60.60
2018-03-26T20:14:40.412Z,59.50
2018-03-26T20:17:07.406Z,59.50
2018-03-26T20:19:34.489Z,59.50
2018-03-26T20:22:01.581Z,60.50
2018-03-26T20:24:28.601Z,61.00
2018-03-26T20:26:55.634Z,61.20
2018-03-26T20:29:22.717Z,61.70
2018-03-26T20:31:49.763Z,61.70
2018-03-26T20:34:16.853Z,61.60
2018-03-26T20:36:44.760Z,61.50
2018-03-26T20:39:11.802Z,61.50
2018-03-26T20:41:38.831Z,61.60
2018-03-26T20:44:05.953Z,61.40
2018-03-26T20:46:33.896Z,61.10
2018-03-26T20:49:00.902Z,62.40
2018-03-26T20:51:27.930Z,61.50
2018-03-26T20:53:55.038Z,61.40
2018-03-26T20:56:22.047Z,62.40
2018-03-26T20:58:49.108Z,62.70
2018-03-26T21:01:16.137Z,62.80
2018-03-26T21:03:43.211Z,62.80
2018-03-26T21:06:10.584Z,63.10
2018-03-26T21:08:37.905Z,63.50
2018-03-26T21:11:05.061Z,64.90
2018-03-26T21:13:32.446Z,65.70
2018-03-26T21:16:00.345Z,64.70
2018-03-26T21:18:28.535Z,65.40
2018-03-26T21:20:56.446Z,64.70
2018-03-26T21:23:24.030Z,64.70
2018-03-26T21:25:51.182Z,64.80
2018-03-26T21:28:18.952Z,64.80
2018-03-26T21:30:46.748Z,65.70
2018-03-26T21:33:13.829Z,65.70
2018-03-26T21:35:40.857Z,66.30
2018-03-26T21:38:08.633Z,66.00
2018-03-26T21:40:35.620Z,66.00
2018-03-26T21:43:02.775Z,66.00
2018-03-26T21:45:30.525Z,65.60
2018-03-26T21:47:57.555Z,65.60
2018-03-26T21:50:24.577Z,65.00
2018-03-26T21:52:51.646Z,64.80
2018-03-26T21:55:18.721Z,64.80
2018-03-26T21:57:46.513Z,65.20
2018-03-26T22:00:20.504Z,65.10
2018-03-26T22:02:47.626Z,64.80
2018-03-26T22:05:14.690Z,65.90
2018-03-26T22:07:41.701Z,64.90
2018-03-26T22:10:08.683Z,64.70
2018-03-26T22:12:35.734Z,64.80
2018-03-26T22:15:02.847Z,64.80
2018-03-26T22:17:29.902Z,64.50
2018-03-26T22:19:57.186Z,64.30
2018-03-26T22:22:24.934Z,64.60
2018-03-26T22:24:52.321Z,64.60
2018-03-26T22:27:20.354Z,64.90
2018-03-26T22:29:47.405Z,64.90
2018-03-26T22:32:14.390Z,64.90
2018-03-26T22:34:42.205Z,65.40
2018-03-26T22:37:09.292Z,65.40
2018-03-26T22:39:37.038Z,65.40
2018-03-26T22:42:04.066Z,65.30
2018-03-26T22:44:31.210Z,65.00
2018-03-26T22:46:58.204Z,65.60
2018-03-26T22:49:25.282Z,65.20
2018-03-26T22:51:52.276Z,65.30
2018-03-26T22:54:19.410Z,64.60
2018-03-26T22:56:46.469Z,64.40
2018-03-26T22:59:14.258Z,64.70
2018-03-26T23:01:42.009Z,65.40
2018-03-26T23:04:10.890Z,64.80
2018-03-26T23:06:38.670Z,64.50
2018-03-26T23:09:06.422Z,65.40
2018-03-26T23:11:33.437Z,65.40
2018-03-26T23:14:00.471Z,65.30
2018-03-26T23:16:27.488Z,65.90
2018-03-26T23:18:55.258Z,66.30
2018-03-26T23:21:22.277Z,66.20
2018-03-26T23:23:49.374Z,66.10
2018-03-26T23:26:16.445Z,66.10
2018-03-26T23:28:43.457Z,66.90
2018-03-26T23:31:10.452Z,66.60
2018-03-26T23:33:37.485Z,66.60
2018-03-26T23:36:04.519Z,66.70
2018-03-26T23:38:31.522Z,66.90
2018-03-26T23:40:59.308Z,67.20
2018-03-26T23:43:27.092Z,66.80
2018-03-26T23:45:54.132Z,66.80
2018-03-26T23:48:21.176Z,67.00
2018-03-26T23:50:48.175Z,66.90
2018-03-26T23:53:16.023Z,67.20
2018-03-26T23:55:43.074Z,67.20
2018-03-26T23:58:10.085Z,67.50
